sensor_id;sensor_type;location;lat;lon;timestamp;temperature;humidity
67598;DHT22;62026;39.230;9.122;2022-11-18T00:00:54;19.60;76.00
67598;DHT22;62026;39.230;9.122;2022-11-18T00:03:20;19.60;75.90
67598;DHT22;62026;39.230;9.122;2022-11-18T00:05:56;19.60;75.90
67598;DHT22;62026;39.230;9.122;2022-11-18T00:08:24;19.60;75.90
67598;DHT22;62026;39.230;9.122;2022-11-18T00:10:51;19.60;75.90
67598;DHT22;62026;39.230;9.122;2022-11-18T00:13:17;19.60;76.00
67598;DHT22;62026;39.230;9.122;2022-11-18T00:16:03;19.60;76.10
67598;DHT22;62026;39.230;9.122;2022-11-18T00:18:31;19.50;76.30
67598;DHT22;62026;39.230;9.122;2022-11-18T00:21:08;19.50;76.30
67598;DHT22;62026;39.230;9.122;2022-11-18T00:23:36;19.50;76.40
67598;DHT22;62026;39.230;9.122;2022-11-18T00:26:04;19.50;76.50
67598;DHT22;62026;39.230;9.122;2022-11-18T00:28:38;19.50;76.50
67598;DHT22;62026;39.230;9.122;2022-11-18T00:31:12;19.50;76.50
67598;DHT22;62026;39.230;9.122;2022-11-18T00:33:39;19.50;76.50
67598;DHT22;62026;39.230;9.122;2022-11-18T00:36:08;19.50;76.60
67598;DHT22;62026;39.230;9.122;2022-11-18T00:38:36;19.50;76.70
67598;DHT22;62026;39.230;9.122;2022-11-18T00:41:10;19.50;76.80
67598;DHT22;62026;39.230;9.122;2022-11-18T00:43:38;19.50;76.90
67598;DHT22;62026;39.230;9.122;2022-11-18T00:46:09;19.50;77.00
67598;DHT22;62026;39.230;9.122;2022-11-18T00:48:36;19.50;77.10
67598;DHT22;62026;39.230;9.122;2022-11-18T00:51:14;19.50;77.20
67598;DHT22;62026;39.230;9.122;2022-11-18T00:53:42;19.50;77.00
67598;DHT22;62026;39.230;9.122;2022-11-18T00:56:08;19.50;77.20
67598;DHT22;62026;39.230;9.122;2022-11-18T00:58:35;19.50;77.30
67598;DHT22;62026;39.230;9.122;2022-11-18T01:01:03;19.50;77.20
67598;DHT22;62026;39.230;9.122;2022-11-18T01:03:29;19.40;77.30
67598;DHT22;62026;39.230;9.122;2022-11-18T01:05:56;19.40;77.20
67598;DHT22;62026;39.230;9.122;2022-11-18T01:08:22;19.40;77.10
67598;DHT22;62026;39.230;9.122;2022-11-18T01:10:48;19.50;77.10
67598;DHT22;62026;39.230;9.122;2022-11-18T01:13:17;19.40;77.10
67598;DHT22;62026;39.230;9.122;2022-11-18T01:16:05;19.30;77.60
67598;DHT22;62026;39.230;9.122;2022-11-18T01:18:31;19.40;77.10
67598;DHT22;62026;39.230;9.122;2022-11-18T01:21:01;19.40;77.10
67598;DHT22;62026;39.230;9.122;2022-11-18T01:23:28;19.50;77.10
67598;DHT22;62026;39.230;9.122;2022-11-18T01:25:55;19.50;77.00
67598;DHT22;62026;39.230;9.122;2022-11-18T01:28:21;19.50;76.90
67598;DHT22;62026;39.230;9.122;2022-11-18T01:30:47;19.50;77.10
67598;DHT22;62026;39.230;9.122;2022-11-18T01:33:13;19.50;77.20
67598;DHT22;62026;39.230;9.122;2022-11-18T01:35:43;19.50;77.30
67598;DHT22;62026;39.230;9.122;2022-11-18T01:38:11;19.50;77.20
67598;DHT22;62026;39.230;9.122;2022-11-18T01:40:38;19.50;77.00
67598;DHT22;62026;39.230;9.122;2022-11-18T01:43:14;19.50;76.80
67598;DHT22;62026;39.230;9.122;2022-11-18T01:45:43;19.50;76.80
67598;DHT22;62026;39.230;9.122;2022-11-18T01:48:26;19.50;76.60
67598;DHT22;62026;39.230;9.122;2022-11-18T01:50:59;19.50;76.40
67598;DHT22;62026;39.230;9.122;2022-11-18T01:53:56;19.50;76.40
67598;DHT22;62026;39.230;9.122;2022-11-18T01:56:42;19.50;76.30
67598;DHT22;62026;39.230;9.122;2022-11-18T01:59:19;19.50;76.40
67598;DHT22;62026;39.230;9.122;2022-11-18T02:01:48;19.50;76.30
67598;DHT22;62026;39.230;9.122;2022-11-18T02:04:15;19.60;76.40
67598;DHT22;62026;39.230;9.122;2022-11-18T02:06:44;19.50;76.20
67598;DHT22;62026;39.230;9.122;2022-11-18T02:09:14;19.60;76.30
67598;DHT22;62026;39.230;9.122;2022-11-18T02:11:41;19.50;76.30
67598;DHT22;62026;39.230;9.122;2022-11-18T02:14:33;19.60;76.40
67598;DHT22;62026;39.230;9.122;2022-11-18T02:25:06;19.60;76.00
67598;DHT22;62026;39.230;9.122;2022-11-18T02:33:50;19.60;75.90
67598;DHT22;62026;39.230;9.122;2022-11-18T02:36:38;19.60;76.00
67598;DHT22;62026;39.230;9.122;2022-11-18T02:39:23;19.60;75.90
67598;DHT22;62026;39.230;9.122;2022-11-18T02:41:57;19.60;75.90
67598;DHT22;62026;39.230;9.122;2022-11-18T02:44:28;19.60;76.00
67598;DHT22;62026;39.230;9.122;2022-11-18T02:47:00;19.60;76.00
67598;DHT22;62026;39.230;9.122;2022-11-18T02:49:40;19.60;76.10
67598;DHT22;62026;39.230;9.122;2022-11-18T02:52:10;19.60;76.20
67598;DHT22;62026;39.230;9.122;2022-11-18T02:54:40;19.60;76.20
67598;DHT22;62026;39.230;9.122;2022-11-18T02:57:08;19.60;76.20
67598;DHT22;62026;39.230;9.122;2022-11-18T02:59:35;19.60;76.30
67598;DHT22;62026;39.230;9.122;2022-11-18T03:02:02;19.60;76.20
67598;DHT22;62026;39.230;9.122;2022-11-18T03:04:29;19.60;76.40
67598;DHT22;62026;39.230;9.122;2022-11-18T03:07:09;19.50;76.80
67598;DHT22;62026;39.230;9.122;2022-11-18T03:09:43;19.50;77.00
67598;DHT22;62026;39.230;9.122;2022-11-18T03:12:42;19.50;76.80
67598;DHT22;62026;39.230;9.122;2022-11-18T03:15:41;19.60;76.70
67598;DHT22;62026;39.230;9.122;2022-11-18T03:21:35;19.60;76.70
67598;DHT22;62026;39.230;9.122;2022-11-18T03:24:26;19.60;76.70
67598;DHT22;62026;39.230;9.122;2022-11-18T03:27:08;19.60;76.70
67598;DHT22;62026;39.230;9.122;2022-11-18T03:29:44;19.60;76.70
67598;DHT22;62026;39.230;9.122;2022-11-18T03:32:23;19.60;76.70
67598;DHT22;62026;39.230;9.122;2022-11-18T03:35:15;19.60;76.70
67598;DHT22;62026;39.230;9.122;2022-11-18T03:37:46;19.70;76.70
67598;DHT22;62026;39.230;9.122;2022-11-18T03:40:21;19.70;76.70
67598;DHT22;62026;39.230;9.122;2022-11-18T03:42:55;19.70;76.90
67598;DHT22;62026;39.230;9.122;2022-11-18T03:45:35;19.70;76.80
67598;DHT22;62026;39.230;9.122;2022-11-18T03:50:48;19.60;76.80
67598;DHT22;62026;39.230;9.122;2022-11-18T03:53:29;19.60;76.80
67598;DHT22;62026;39.230;9.122;2022-11-18T03:56:14;19.70;76.80
67598;DHT22;62026;39.230;9.122;2022-11-18T03:59:12;19.60;76.80
67598;DHT22;62026;39.230;9.122;2022-11-18T04:01:58;19.60;76.90
67598;DHT22;62026;39.230;9.122;2022-11-18T04:04:33;19.60;76.90
67598;DHT22;62026;39.230;9.122;2022-11-18T04:09:50;19.60;77.10
67598;DHT22;62026;39.230;9.122;2022-11-18T04:12:26;19.60;76.90
67598;DHT22;62026;39.230;9.122;2022-11-18T04:14:55;19.70;76.90
67598;DHT22;62026;39.230;9.122;2022-11-18T04:17:26;19.60;77.00
67598;DHT22;62026;39.230;9.122;2022-11-18T04:19:53;19.60;77.00
67598;DHT22;62026;39.230;9.122;2022-11-18T04:22:20;19.70;76.90
67598;DHT22;62026;39.230;9.122;2022-11-18T04:24:47;19.70;76.80
67598;DHT22;62026;39.230;9.122;2022-11-18T04:27:13;19.60;76.80
67598;DHT22;62026;39.230;9.122;2022-11-18T04:29:39;19.60;76.90
67598;DHT22;62026;39.230;9.122;2022-11-18T04:32:05;19.60;77.10
67598;DHT22;62026;39.230;9.122;2022-11-18T04:34:31;19.70;77.10
67598;DHT22;62026;39.230;9.122;2022-11-18T04:36:58;19.70;77.00
67598;DHT22;62026;39.230;9.122;2022-11-18T04:39:24;19.60;77.10
67598;DHT22;62026;39.230;9.122;2022-11-18T04:41:50;19.60;77.10
67598;DHT22;62026;39.230;9.122;2022-11-18T04:44:28;19.70;77.10
67598;DHT22;62026;39.230;9.122;2022-11-18T04:46:57;19.70;77.00
67598;DHT22;62026;39.230;9.122;2022-11-18T04:49:25;19.70;76.90
67598;DHT22;62026;39.230;9.122;2022-11-18T04:51:52;19.70;77.00
67598;DHT22;62026;39.230;9.122;2022-11-18T04:54:19;19.70;77.10
67598;DHT22;62026;39.230;9.122;2022-11-18T04:56:47;19.70;77.20
67598;DHT22;62026;39.230;9.122;2022-11-18T04:59:14;19.70;77.10
67598;DHT22;62026;39.230;9.122;2022-11-18T05:01:45;19.70;77.20
67598;DHT22;62026;39.230;9.122;2022-11-18T05:04:15;19.70;77.00
67598;DHT22;62026;39.230;9.122;2022-11-18T05:06:43;19.70;77.10
67598;DHT22;62026;39.230;9.122;2022-11-18T05:09:10;19.70;77.30
67598;DHT22;62026;39.230;9.122;2022-11-18T05:11:36;19.70;77.10
67598;DHT22;62026;39.230;9.122;2022-11-18T05:14:23;19.70;77.20
67598;DHT22;62026;39.230;9.122;2022-11-18T05:16:50;19.70;77.10
67598;DHT22;62026;39.230;9.122;2022-11-18T05:19:17;19.70;77.10
67598;DHT22;62026;39.230;9.122;2022-11-18T05:21:44;19.70;77.00
67598;DHT22;62026;39.230;9.122;2022-11-18T05:24:10;19.70;77.00
67598;DHT22;62026;39.230;9.122;2022-11-18T05:26:36;19.70;77.10
67598;DHT22;62026;39.230;9.122;2022-11-18T05:29:03;19.70;77.00
67598;DHT22;62026;39.230;9.122;2022-11-18T05:31:29;19.70;76.80
67598;DHT22;62026;39.230;9.122;2022-11-18T05:33:55;19.70;77.00
67598;DHT22;62026;39.230;9.122;2022-11-18T05:36:22;19.70;76.80
67598;DHT22;62026;39.230;9.122;2022-11-18T05:38:48;19.70;76.70
67598;DHT22;62026;39.230;9.122;2022-11-18T05:41:16;19.70;76.80
67598;DHT22;62026;39.230;9.122;2022-11-18T05:44:02;19.70;76.90
67598;DHT22;62026;39.230;9.122;2022-11-18T05:46:29;19.70;76.80
67598;DHT22;62026;39.230;9.122;2022-11-18T05:48:56;19.70;77.10
67598;DHT22;62026;39.230;9.122;2022-11-18T05:51:23;19.70;77.10
67598;DHT22;62026;39.230;9.122;2022-11-18T05:53:50;19.70;77.20
67598;DHT22;62026;39.230;9.122;2022-11-18T05:56:27;19.70;77.40
67598;DHT22;62026;39.230;9.122;2022-11-18T05:58:56;19.70;77.80
67598;DHT22;62026;39.230;9.122;2022-11-18T06:01:28;19.70;77.80
67598;DHT22;62026;39.230;9.122;2022-11-18T06:03:56;19.70;78.20
67598;DHT22;62026;39.230;9.122;2022-11-18T06:06:23;19.70;78.50
67598;DHT22;62026;39.230;9.122;2022-11-18T06:09:04;19.70;78.50
67598;DHT22;62026;39.230;9.122;2022-11-18T06:11:40;19.70;78.70
67598;DHT22;62026;39.230;9.122;2022-11-18T06:14:18;19.70;78.90
67598;DHT22;62026;39.230;9.122;2022-11-18T06:16:51;19.70;79.10
67598;DHT22;62026;39.230;9.122;2022-11-18T06:19:20;19.70;79.20
67598;DHT22;62026;39.230;9.122;2022-11-18T06:21:47;19.70;79.40
67598;DHT22;62026;39.230;9.122;2022-11-18T06:24:14;19.70;79.50
67598;DHT22;62026;39.230;9.122;2022-11-18T06:26:42;19.70;79.50
67598;DHT22;62026;39.230;9.122;2022-11-18T06:29:12;19.70;79.40
67598;DHT22;62026;39.230;9.122;2022-11-18T06:31:40;19.70;79.40
67598;DHT22;62026;39.230;9.122;2022-11-18T06:34:06;19.80;79.50
67598;DHT22;62026;39.230;9.122;2022-11-18T06:36:32;19.80;79.40
67598;DHT22;62026;39.230;9.122;2022-11-18T06:39:06;19.80;79.40
67598;DHT22;62026;39.230;9.122;2022-11-18T06:41:33;19.80;79.20
67598;DHT22;62026;39.230;9.122;2022-11-18T06:43:59;19.80;79.10
67598;DHT22;62026;39.230;9.122;2022-11-18T06:46:25;19.80;79.00
67598;DHT22;62026;39.230;9.122;2022-11-18T06:49:10;19.80;78.60
67598;DHT22;62026;39.230;9.122;2022-11-18T06:51:36;19.90;78.50
67598;DHT22;62026;39.230;9.122;2022-11-18T06:54:03;19.90;77.80
67598;DHT22;62026;39.230;9.122;2022-11-18T06:56:30;19.90;77.50
67598;DHT22;62026;39.230;9.122;2022-11-18T06:58:57;20.00;77.20
67598;DHT22;62026;39.230;9.122;2022-11-18T07:01:26;20.00;77.10
67598;DHT22;62026;39.230;9.122;2022-11-18T07:03:54;19.90;77.00
67598;DHT22;62026;39.230;9.122;2022-11-18T07:06:25;19.90;77.20
67598;DHT22;62026;39.230;9.122;2022-11-18T07:08:54;19.90;77.20
67598;DHT22;62026;39.230;9.122;2022-11-18T07:11:22;19.90;77.20
67598;DHT22;62026;39.230;9.122;2022-11-18T07:13:49;20.00;76.60
67598;DHT22;62026;39.230;9.122;2022-11-18T07:16:18;20.10;75.70
67598;DHT22;62026;39.230;9.122;2022-11-18T07:18:47;20.10;74.60
67598;DHT22;62026;39.230;9.122;2022-11-18T07:21:19;20.10;74.10
67598;DHT22;62026;39.230;9.122;2022-11-18T07:23:47;20.20;73.60
67598;DHT22;62026;39.230;9.122;2022-11-18T07:26:14;20.20;73.00
67598;DHT22;62026;39.230;9.122;2022-11-18T07:28:41;20.30;72.60
67598;DHT22;62026;39.230;9.122;2022-11-18T07:31:13;20.40;72.10
67598;DHT22;62026;39.230;9.122;2022-11-18T07:33:43;20.40;71.70
67598;DHT22;62026;39.230;9.122;2022-11-18T07:36:16;20.50;71.50
67598;DHT22;62026;39.230;9.122;2022-11-18T07:38:44;20.50;71.40
67598;DHT22;62026;39.230;9.122;2022-11-18T07:41:13;20.60;71.10
67598;DHT22;62026;39.230;9.122;2022-11-18T07:43:45;20.60;70.60
67598;DHT22;62026;39.230;9.122;2022-11-18T07:46:12;20.70;70.60
67598;DHT22;62026;39.230;9.122;2022-11-18T07:48:44;20.70;70.10
67598;DHT22;62026;39.230;9.122;2022-11-18T07:51:12;20.80;70.30
67598;DHT22;62026;39.230;9.122;2022-11-18T07:53:40;20.80;70.00
67598;DHT22;62026;39.230;9.122;2022-11-18T07:56:07;20.90;69.90
67598;DHT22;62026;39.230;9.122;2022-11-18T07:58:34;20.90;69.70
67598;DHT22;62026;39.230;9.122;2022-11-18T08:01:16;21.00;69.40
67598;DHT22;62026;39.230;9.122;2022-11-18T08:03:44;21.10;69.30
67598;DHT22;62026;39.230;9.122;2022-11-18T08:06:14;21.10;68.60
67598;DHT22;62026;39.230;9.122;2022-11-18T08:08:42;21.20;68.30
67598;DHT22;62026;39.230;9.122;2022-11-18T08:11:10;21.60;67.50
67598;DHT22;62026;39.230;9.122;2022-11-18T08:13:38;21.80;66.50
67598;DHT22;62026;39.230;9.122;2022-11-18T08:16:14;22.00;65.40
67598;DHT22;62026;39.230;9.122;2022-11-18T08:18:42;22.20;64.90
67598;DHT22;62026;39.230;9.122;2022-11-18T08:21:09;22.20;64.30
67598;DHT22;62026;39.230;9.122;2022-11-18T08:23:36;22.20;64.90
67598;DHT22;62026;39.230;9.122;2022-11-18T08:28:39;22.60;63.30
67598;DHT22;62026;39.230;9.122;2022-11-18T08:31:20;22.80;63.50
67598;DHT22;62026;39.230;9.122;2022-11-18T08:36:31;22.90;63.00
67598;DHT22;62026;39.230;9.122;2022-11-18T08:39:00;23.00;63.10
67598;DHT22;62026;39.230;9.122;2022-11-18T08:44:02;22.80;63.70
67598;DHT22;62026;39.230;9.122;2022-11-18T08:46:29;22.80;63.50
67598;DHT22;62026;39.230;9.122;2022-11-18T08:48:56;22.80;63.70
67598;DHT22;62026;39.230;9.122;2022-11-18T08:51:23;22.90;63.30
67598;DHT22;62026;39.230;9.122;2022-11-18T08:53:50;23.00;63.30
67598;DHT22;62026;39.230;9.122;2022-11-18T08:56:21;23.10;62.90
67598;DHT22;62026;39.230;9.122;2022-11-18T08:58:49;23.20;62.30
67598;DHT22;62026;39.230;9.122;2022-11-18T09:01:15;23.20;62.30
67598;DHT22;62026;39.230;9.122;2022-11-18T09:03:42;23.20;62.30
67598;DHT22;62026;39.230;9.122;2022-11-18T09:06:17;23.30;61.80
67598;DHT22;62026;39.230;9.122;2022-11-18T09:08:45;23.40;61.70
67598;DHT22;62026;39.230;9.122;2022-11-18T09:11:16;23.30;61.40
67598;DHT22;62026;39.230;9.122;2022-11-18T09:13:44;23.30;61.40
67598;DHT22;62026;39.230;9.122;2022-11-18T09:16:12;23.40;61.10
67598;DHT22;62026;39.230;9.122;2022-11-18T09:18:38;23.50;60.60
67598;DHT22;62026;39.230;9.122;2022-11-18T09:21:07;23.50;60.50
67598;DHT22;62026;39.230;9.122;2022-11-18T09:23:35;23.60;60.10
67598;DHT22;62026;39.230;9.122;2022-11-18T09:26:06;23.60;60.10
67598;DHT22;62026;39.230;9.122;2022-11-18T09:28:34;23.50;60.20
67598;DHT22;62026;39.230;9.122;2022-11-18T09:31:11;23.60;59.90
67598;DHT22;62026;39.230;9.122;2022-11-18T09:33:39;23.60;59.80
67598;DHT22;62026;39.230;9.122;2022-11-18T09:36:12;23.60;59.70
67598;DHT22;62026;39.230;9.122;2022-11-18T09:38:40;23.70;59.40
67598;DHT22;62026;39.230;9.122;2022-11-18T09:49:57;23.70;58.80
67598;DHT22;62026;39.230;9.122;2022-11-18T09:52:36;23.70;58.50
67598;DHT22;62026;39.230;9.122;2022-11-18T09:55:14;23.70;58.70
67598;DHT22;62026;39.230;9.122;2022-11-18T09:57:54;23.80;58.20
67598;DHT22;62026;39.230;9.122;2022-11-18T10:00:28;23.80;58.20
67598;DHT22;62026;39.230;9.122;2022-11-18T10:03:22;23.60;58.00
67598;DHT22;62026;39.230;9.122;2022-11-18T10:06:00;23.50;58.30
67598;DHT22;62026;39.230;9.122;2022-11-18T10:23:28;22.90;57.50
67598;DHT22;62026;39.230;9.122;2022-11-18T10:25:59;22.90;57.40
67598;DHT22;62026;39.230;9.122;2022-11-18T10:28:27;22.80;58.00
67598;DHT22;62026;39.230;9.122;2022-11-18T10:31:10;22.80;57.90
67598;DHT22;62026;39.230;9.122;2022-11-18T10:33:37;22.80;57.40
67598;DHT22;62026;39.230;9.122;2022-11-18T10:36:11;22.80;57.40
67598;DHT22;62026;39.230;9.122;2022-11-18T10:38:44;22.70;57.40
67598;DHT22;62026;39.230;9.122;2022-11-18T10:41:13;22.60;57.40
67598;DHT22;62026;39.230;9.122;2022-11-18T10:43:52;22.50;57.40
67598;DHT22;62026;39.230;9.122;2022-11-18T10:59:32;22.50;57.20
67598;DHT22;62026;39.230;9.122;2022-11-18T11:02:39;22.50;56.80
67598;DHT22;62026;39.230;9.122;2022-11-18T11:05:18;22.50;56.60
67598;DHT22;62026;39.230;9.122;2022-11-18T11:10:27;22.50;56.50
67598;DHT22;62026;39.230;9.122;2022-11-18T11:13:07;22.40;56.30
67598;DHT22;62026;39.230;9.122;2022-11-18T11:15:45;22.40;56.20
67598;DHT22;62026;39.230;9.122;2022-11-18T11:18:23;22.40;56.60
67598;DHT22;62026;39.230;9.122;2022-11-18T11:21:15;22.30;56.80
67598;DHT22;62026;39.230;9.122;2022-11-18T11:23:44;22.30;56.60
67598;DHT22;62026;39.230;9.122;2022-11-18T11:31:24;22.10;56.20
67598;DHT22;62026;39.230;9.122;2022-11-18T11:34:09;22.10;55.80
67598;DHT22;62026;39.230;9.122;2022-11-18T11:40:05;22.00;54.70
67598;DHT22;62026;39.230;9.122;2022-11-18T11:46:31;21.90;55.00
67598;DHT22;62026;39.230;9.122;2022-11-18T11:49:18;21.90;55.20
67598;DHT22;62026;39.230;9.122;2022-11-18T11:51:53;21.90;55.60
67598;DHT22;62026;39.230;9.122;2022-11-18T12:00:14;21.80;57.20
67598;DHT22;62026;39.230;9.122;2022-11-18T12:02:55;21.80;57.20
67598;DHT22;62026;39.230;9.122;2022-11-18T12:05:45;21.80;57.30
67598;DHT22;62026;39.230;9.122;2022-11-18T12:08:29;21.80;57.70
67598;DHT22;62026;39.230;9.122;2022-11-18T12:14:04;21.80;57.40
67598;DHT22;62026;39.230;9.122;2022-11-18T12:19:36;21.80;56.90
67598;DHT22;62026;39.230;9.122;2022-11-18T12:22:04;21.70;57.10
67598;DHT22;62026;39.230;9.122;2022-11-18T12:24:39;21.70;57.30
67598;DHT22;62026;39.230;9.122;2022-11-18T12:27:12;21.70;57.40
67598;DHT22;62026;39.230;9.122;2022-11-18T12:29:59;21.70;57.90
67598;DHT22;62026;39.230;9.122;2022-11-18T12:32:54;21.70;58.40
67598;DHT22;62026;39.230;9.122;2022-11-18T12:35:26;21.70;58.70
67598;DHT22;62026;39.230;9.122;2022-11-18T12:40:39;21.60;58.60
67598;DHT22;62026;39.230;9.122;2022-11-18T12:54:32;21.60;57.90
67598;DHT22;62026;39.230;9.122;2022-11-18T12:57:20;21.60;58.30
67598;DHT22;62026;39.230;9.122;2022-11-18T12:59:48;21.60;57.80
67598;DHT22;62026;39.230;9.122;2022-11-18T13:02:24;21.60;57.70
67598;DHT22;62026;39.230;9.122;2022-11-18T13:05:32;21.50;57.10
67598;DHT22;62026;39.230;9.122;2022-11-18T13:08:12;21.50;57.30
67598;DHT22;62026;39.230;9.122;2022-11-18T13:10:53;21.50;57.10
67598;DHT22;62026;39.230;9.122;2022-11-18T13:13:43;21.50;56.70
67598;DHT22;62026;39.230;9.122;2022-11-18T13:16:20;21.50;55.90
67598;DHT22;62026;39.230;9.122;2022-11-18T13:19:20;21.50;56.50
67598;DHT22;62026;39.230;9.122;2022-11-18T13:21:55;21.50;56.70
67598;DHT22;62026;39.230;9.122;2022-11-18T13:24:46;21.50;56.60
67598;DHT22;62026;39.230;9.122;2022-11-18T13:27:47;21.50;56.30
67598;DHT22;62026;39.230;9.122;2022-11-18T13:30:22;21.50;56.70
67598;DHT22;62026;39.230;9.122;2022-11-18T13:32:49;21.50;56.40
67598;DHT22;62026;39.230;9.122;2022-11-18T13:35:20;21.50;56.80
67598;DHT22;62026;39.230;9.122;2022-11-18T13:40:27;21.50;57.10
67598;DHT22;62026;39.230;9.122;2022-11-18T13:42:56;21.50;57.30
67598;DHT22;62026;39.230;9.122;2022-11-18T13:45:26;21.50;57.10
67598;DHT22;62026;39.230;9.122;2022-11-18T13:48:07;21.50;57.60
67598;DHT22;62026;39.230;9.122;2022-11-18T13:50:38;21.50;57.10
67598;DHT22;62026;39.230;9.122;2022-11-18T13:53:37;21.40;57.10
67598;DHT22;62026;39.230;9.122;2022-11-18T13:56:26;21.40;56.20
67598;DHT22;62026;39.230;9.122;2022-11-18T13:58:57;21.40;56.90
67598;DHT22;62026;39.230;9.122;2022-11-18T14:01:32;21.40;56.10
67598;DHT22;62026;39.230;9.122;2022-11-18T14:06:41;21.30;55.30
67598;DHT22;62026;39.230;9.122;2022-11-18T14:11:38;21.30;55.20
67598;DHT22;62026;39.230;9.122;2022-11-18T14:14:07;21.30;55.00
67598;DHT22;62026;39.230;9.122;2022-11-18T14:16:36;21.30;54.60
67598;DHT22;62026;39.230;9.122;2022-11-18T14:19:05;21.30;53.90
67598;DHT22;62026;39.230;9.122;2022-11-18T14:21:35;21.30;53.80
67598;DHT22;62026;39.230;9.122;2022-11-18T14:24:05;21.30;53.40
67598;DHT22;62026;39.230;9.122;2022-11-18T14:26:36;21.30;53.70
67598;DHT22;62026;39.230;9.122;2022-11-18T14:29:17;21.30;54.10
67598;DHT22;62026;39.230;9.122;2022-11-18T14:32:14;21.30;54.20
67598;DHT22;62026;39.230;9.122;2022-11-18T14:34:41;21.30;54.40
67598;DHT22;62026;39.230;9.122;2022-11-18T14:37:12;21.30;54.20
67598;DHT22;62026;39.230;9.122;2022-11-18T14:39:39;21.20;54.20
67598;DHT22;62026;39.230;9.122;2022-11-18T14:42:10;21.20;54.30
67598;DHT22;62026;39.230;9.122;2022-11-18T14:44:37;21.20;54.00
67598;DHT22;62026;39.230;9.122;2022-11-18T14:47:30;21.20;54.40
67598;DHT22;62026;39.230;9.122;2022-11-18T14:49:56;21.20;54.20
67598;DHT22;62026;39.230;9.122;2022-11-18T14:52:22;21.20;53.80
67598;DHT22;62026;39.230;9.122;2022-11-18T14:54:48;21.10;53.20
67598;DHT22;62026;39.230;9.122;2022-11-18T14:57:15;21.10;53.30
67598;DHT22;62026;39.230;9.122;2022-11-18T14:59:42;21.10;52.60
67598;DHT22;62026;39.230;9.122;2022-11-18T15:02:14;21.10;52.50
67598;DHT22;62026;39.230;9.122;2022-11-18T15:04:41;21.10;52.80
67598;DHT22;62026;39.230;9.122;2022-11-18T15:07:13;21.10;52.80
67598;DHT22;62026;39.230;9.122;2022-11-18T15:09:40;21.10;53.20
67598;DHT22;62026;39.230;9.122;2022-11-18T15:12:07;21.10;53.60
67598;DHT22;62026;39.230;9.122;2022-11-18T15:14:33;21.00;53.70
67598;DHT22;62026;39.230;9.122;2022-11-18T15:17:01;21.00;53.90
67598;DHT22;62026;39.230;9.122;2022-11-18T15:19:28;21.00;54.20
67598;DHT22;62026;39.230;9.122;2022-11-18T15:21:54;21.00;54.50
67598;DHT22;62026;39.230;9.122;2022-11-18T15:24:20;21.00;54.50
67598;DHT22;62026;39.230;9.122;2022-11-18T15:26:47;21.00;54.70
67598;DHT22;62026;39.230;9.122;2022-11-18T15:29:19;21.00;55.00
67598;DHT22;62026;39.230;9.122;2022-11-18T15:31:47;21.00;55.10
67598;DHT22;62026;39.230;9.122;2022-11-18T15:34:14;21.00;55.10
67598;DHT22;62026;39.230;9.122;2022-11-18T15:36:43;21.00;55.40
67598;DHT22;62026;39.230;9.122;2022-11-18T15:39:10;21.00;55.70
67598;DHT22;62026;39.230;9.122;2022-11-18T15:41:39;20.90;55.60
67598;DHT22;62026;39.230;9.122;2022-11-18T15:44:07;20.90;56.10
67598;DHT22;62026;39.230;9.122;2022-11-18T15:46:35;20.90;56.60
67598;DHT22;62026;39.230;9.122;2022-11-18T15:49:01;20.90;57.20
67598;DHT22;62026;39.230;9.122;2022-11-18T15:51:28;20.90;57.70
67598;DHT22;62026;39.230;9.122;2022-11-18T15:53:55;20.90;58.10
67598;DHT22;62026;39.230;9.122;2022-11-18T15:58:52;20.80;58.70
67598;DHT22;62026;39.230;9.122;2022-11-18T16:01:24;20.80;59.20
67598;DHT22;62026;39.230;9.122;2022-11-18T16:03:52;20.80;59.30
67598;DHT22;62026;39.230;9.122;2022-11-18T16:06:18;20.80;59.60
67598;DHT22;62026;39.230;9.122;2022-11-18T16:08:44;20.80;59.90
67598;DHT22;62026;39.230;9.122;2022-11-18T16:11:13;20.70;59.90
67598;DHT22;62026;39.230;9.122;2022-11-18T16:14:06;20.70;60.20
67598;DHT22;62026;39.230;9.122;2022-11-18T16:16:34;20.70;60.00
67598;DHT22;62026;39.230;9.122;2022-11-18T16:19:04;20.70;59.90
67598;DHT22;62026;39.230;9.122;2022-11-18T16:21:37;20.70;59.90
67598;DHT22;62026;39.230;9.122;2022-11-18T16:24:06;20.70;60.00
67598;DHT22;62026;39.230;9.122;2022-11-18T16:26:35;20.60;60.10
67598;DHT22;62026;39.230;9.122;2022-11-18T16:29:05;20.60;60.20
67598;DHT22;62026;39.230;9.122;2022-11-18T16:31:32;20.60;60.20
67598;DHT22;62026;39.230;9.122;2022-11-18T16:34:10;20.60;60.20
67598;DHT22;62026;39.230;9.122;2022-11-18T16:36:42;20.60;60.20
67598;DHT22;62026;39.230;9.122;2022-11-18T16:39:24;20.60;60.20
67598;DHT22;62026;39.230;9.122;2022-11-18T16:41:59;20.50;60.30
67598;DHT22;62026;39.230;9.122;2022-11-18T16:44:27;20.50;60.10
67598;DHT22;62026;39.230;9.122;2022-11-18T16:46:54;20.50;60.20
67598;DHT22;62026;39.230;9.122;2022-11-18T16:49:23;20.50;60.40
67598;DHT22;62026;39.230;9.122;2022-11-18T16:51:53;20.50;60.60
67598;DHT22;62026;39.230;9.122;2022-11-18T16:54:30;20.50;60.60
67598;DHT22;62026;39.230;9.122;2022-11-18T16:56:58;20.40;60.70
67598;DHT22;62026;39.230;9.122;2022-11-18T16:59:29;20.40;60.80
67598;DHT22;62026;39.230;9.122;2022-11-18T17:01:57;20.40;60.80
67598;DHT22;62026;39.230;9.122;2022-11-18T17:04:25;20.40;60.90
67598;DHT22;62026;39.230;9.122;2022-11-18T17:06:53;20.30;60.80
67598;DHT22;62026;39.230;9.122;2022-11-18T17:09:22;20.30;60.70
67598;DHT22;62026;39.230;9.122;2022-11-18T17:11:50;20.30;60.70
67598;DHT22;62026;39.230;9.122;2022-11-18T17:14:17;20.30;60.60
67598;DHT22;62026;39.230;9.122;2022-11-18T17:16:47;20.30;60.70
67598;DHT22;62026;39.230;9.122;2022-11-18T17:19:15;20.30;60.50
67598;DHT22;62026;39.230;9.122;2022-11-18T17:44:48;20.10;60.50
67598;DHT22;62026;39.230;9.122;2022-11-18T17:47:14;20.00;60.60
67598;DHT22;62026;39.230;9.122;2022-11-18T17:49:40;20.10;60.70
67598;DHT22;62026;39.230;9.122;2022-11-18T17:52:07;20.00;60.60
67598;DHT22;62026;39.230;9.122;2022-11-18T17:54:33;20.00;60.80
67598;DHT22;62026;39.230;9.122;2022-11-18T17:56:59;20.00;60.70
67598;DHT22;62026;39.230;9.122;2022-11-18T17:59:25;20.00;60.70
67598;DHT22;62026;39.230;9.122;2022-11-18T18:01:51;20.00;60.80
67598;DHT22;62026;39.230;9.122;2022-11-18T18:04:17;20.00;60.80
67598;DHT22;62026;39.230;9.122;2022-11-18T18:06:49;20.00;60.90
67598;DHT22;62026;39.230;9.122;2022-11-18T18:09:18;19.90;60.90
67598;DHT22;62026;39.230;9.122;2022-11-18T18:11:44;19.90;61.00
67598;DHT22;62026;39.230;9.122;2022-11-18T18:14:10;19.90;61.10
67598;DHT22;62026;39.230;9.122;2022-11-18T18:16:43;19.90;61.10
67598;DHT22;62026;39.230;9.122;2022-11-18T18:19:18;19.90;61.20
67598;DHT22;62026;39.230;9.122;2022-11-18T18:21:46;20.00;61.60